createdAt,value
2022-07-28T00:00:21.955Z,24.44
2022-07-28T00:01:25.464Z,24.43
2022-07-28T00:02:28.278Z,24.41
2022-07-28T00:03:30.920Z,24.39
2022-07-28T00:04:33.955Z,24.35
2022-07-28T00:05:36.620Z,24.34
2022-07-28T00:06:39.380Z,24.32
2022-07-28T00:07:41.960Z,24.30
2022-07-28T00:08:45.048Z,24.32
2022-07-28T00:09:47.620Z,24.32
2022-07-28T00:10:51.000Z,24.33
2022-07-28T00:11:54.944Z,24.34
2022-07-28T00:12:57.887Z,24.33
2022-07-28T00:14:00.306Z,24.34
2022-07-28T00:15:02.999Z,24.36
2022-07-28T00:16:05.697Z,24.38
2022-07-28T00:17:08.341Z,24.37
2022-07-28T00:18:10.702Z,24.36
2022-07-28T00:19:13.189Z,24.30
2022-07-28T00:20:16.334Z,24.26
2022-07-28T00:21:20.060Z,24.22
2022-07-28T00:22:22.511Z,24.20
2022-07-28T00:23:38.577Z,24.18
2022-07-28T00:24:29.768Z,24.16
2022-07-28T00:25:33.054Z,24.16
2022-07-28T00:26:35.638Z,24.13
2022-07-28T00:27:38.122Z,24.11
2022-07-28T00:28:40.647Z,24.08
2022-07-28T00:29:50.488Z,24.07
2022-07-28T00:30:47.882Z,24.11
2022-07-28T00:31:50.315Z,24.14
2022-07-28T00:32:52.976Z,24.15
2022-07-28T00:33:55.360Z,24.14
2022-07-28T00:34:58.292Z,24.13
2022-07-28T00:36:02.020Z,24.09
2022-07-28T00:37:06.721Z,24.05
2022-07-28T00:38:09.726Z,24.00
2022-07-28T00:39:13.792Z,23.95
2022-07-28T00:40:18.021Z,23.91
2022-07-28T00:41:21.426Z,23.93
2022-07-28T00:42:23.872Z,23.95
2022-07-28T00:43:26.126Z,23.97
2022-07-28T00:44:30.228Z,23.96
2022-07-28T00:45:32.802Z,23.95
2022-07-28T00:46:35.649Z,23.97
2022-07-28T00:47:39.199Z,23.97
2022-07-28T00:48:47.835Z,23.97
2022-07-28T00:49:50.647Z,23.97
2022-07-28T00:50:53.924Z,24.01
2022-07-28T00:51:56.595Z,24.02
2022-07-28T00:52:59.294Z,24.03
2022-07-28T00:54:02.077Z,24.03
2022-07-28T00:55:05.220Z,24.02
2022-07-28T00:56:08.033Z,24.02
2022-07-28T00:57:10.418Z,24.00
2022-07-28T00:58:12.715Z,23.99
2022-07-28T00:59:15.272Z,23.99
2022-07-28T01:00:18.088Z,23.98
2022-07-28T01:01:20.593Z,23.96
2022-07-28T01:02:24.059Z,23.97
2022-07-28T01:03:27.733Z,23.99
2022-07-28T01:04:30.182Z,23.98
2022-07-28T01:07:10.306Z,24.14
2022-07-28T01:08:22.541Z,24.08
2022-07-28T01:09:51.632Z,24.08
2022-07-28T01:11:20.691Z,24.04
2022-07-28T01:12:46.758Z,24.04
2022-07-28T01:14:08.663Z,24.04
2022-07-28T01:15:26.451Z,24.00
2022-07-28T01:16:30.703Z,23.98
2022-07-28T01:17:42.761Z,23.96
2022-07-28T01:18:54.731Z,23.91
2022-07-28T01:20:26.845Z,23.87
2022-07-28T01:21:34.773Z,23.86
2022-07-28T01:22:43.601Z,23.82
2022-07-28T01:25:25.092Z,23.84
2022-07-28T01:26:37.476Z,23.72
2022-07-28T01:27:46.290Z,23.63
2022-07-28T01:28:53.519Z,23.62
2022-07-28T01:30:08.217Z,23.61
2022-07-28T01:31:10.633Z,23.56
2022-07-28T01:33:41.965Z,23.50
2022-07-28T01:34:51.659Z,23.36
2022-07-28T01:35:56.992Z,23.38
2022-07-28T01:38:14.404Z,23.54
2022-07-28T01:39:17.188Z,23.45
2022-07-28T01:40:23.031Z,23.47
2022-07-28T01:42:53.555Z,23.52
2022-07-28T01:43:58.526Z,23.52
2022-07-28T01:45:01.013Z,23.51
2022-07-28T01:46:04.501Z,23.46
2022-07-28T01:47:07.419Z,23.46
2022-07-28T01:48:10.391Z,23.47
2022-07-28T01:49:13.156Z,23.50
2022-07-28T01:50:17.163Z,23.50
2022-07-28T01:51:19.822Z,23.48
2022-07-28T01:52:22.603Z,23.48
2022-07-28T01:53:25.370Z,23.49
2022-07-28T01:54:28.039Z,23.49
2022-07-28T01:55:30.683Z,23.49
2022-07-28T01:56:34.547Z,23.51
2022-07-28T01:57:36.883Z,23.54
2022-07-28T01:58:39.130Z,23.55
2022-07-28T01:59:42.819Z,23.55
2022-07-28T02:00:50.509Z,23.56
2022-07-28T02:01:52.903Z,23.53
2022-07-28T02:02:56.186Z,23.50
2022-07-28T02:03:59.986Z,23.50
2022-07-28T02:05:02.776Z,23.53
2022-07-28T02:06:05.931Z,23.54
2022-07-28T02:07:09.525Z,23.54
2022-07-28T02:08:12.368Z,23.55
2022-07-28T02:09:14.970Z,23.56
2022-07-28T02:10:19.137Z,23.54
2022-07-28T02:11:21.531Z,23.52
2022-07-28T02:12:24.062Z,23.49
2022-07-28T02:13:26.315Z,23.47
2022-07-28T02:14:29.405Z,23.48
2022-07-28T02:15:32.730Z,23.53
2022-07-28T02:16:35.461Z,23.56
2022-07-28T02:17:38.137Z,23.60
2022-07-28T02:18:40.699Z,23.62
2022-07-28T02:19:44.393Z,23.62
2022-07-28T02:20:47.037Z,23.61
2022-07-28T02:21:50.249Z,23.59
2022-07-28T02:22:52.602Z,23.56
2022-07-28T02:23:55.290Z,23.56
2022-07-28T02:24:58.355Z,23.55
2022-07-28T02:26:03.889Z,23.60
2022-07-28T02:27:20.169Z,23.56
2022-07-28T02:28:23.660Z,23.50
2022-07-28T02:29:49.679Z,23.45
2022-07-28T02:30:38.308Z,23.42
2022-07-28T02:31:55.957Z,23.35
2022-07-28T02:34:13.787Z,23.33
2022-07-28T02:35:29.063Z,23.20
2022-07-28T02:36:40.743Z,23.17
2022-07-28T02:40:40.425Z,23.33
2022-07-28T02:41:42.692Z,23.27
2022-07-28T02:42:47.660Z,23.27
2022-07-28T02:45:12.034Z,23.29
2022-07-28T02:47:31.694Z,23.35
2022-07-28T02:48:34.714Z,23.26
2022-07-28T02:49:37.216Z,23.27
2022-07-28T02:52:00.114Z,23.33
2022-07-28T02:53:14.961Z,23.41
2022-07-28T02:54:08.215Z,23.46
2022-07-28T02:55:11.868Z,23.49
2022-07-28T02:56:16.219Z,23.49
2022-07-28T02:57:18.847Z,23.52
2022-07-28T02:58:22.121Z,23.47
2022-07-28T02:59:24.996Z,23.46
2022-07-28T03:00:28.565Z,23.44
2022-07-28T03:01:30.982Z,23.45
2022-07-28T03:02:36.376Z,23.41
2022-07-28T03:03:43.961Z,23.37
2022-07-28T03:04:44.204Z,23.34
2022-07-28T03:05:47.542Z,23.30
2022-07-28T03:06:50.035Z,23.28
2022-07-28T03:07:53.863Z,23.20
2022-07-28T03:08:57.007Z,23.16
2022-07-28T03:10:00.399Z,23.09
2022-07-28T03:11:12.239Z,23.06
2022-07-28T03:12:15.262Z,23.05
2022-07-28T03:13:18.226Z,23.05
2022-07-28T03:14:20.643Z,23.06
2022-07-28T03:15:23.402Z,23.07
2022-07-28T03:16:26.085Z,23.08
2022-07-28T03:17:28.914Z,23.11
2022-07-28T03:18:32.299Z,23.11
2022-07-28T03:19:34.485Z,23.12
2022-07-28T03:20:37.115Z,23.13
2022-07-28T03:21:40.665Z,23.08
2022-07-28T03:22:44.053Z,23.07
2022-07-28T03:23:47.384Z,23.05
2022-07-28T03:24:51.216Z,23.07
2022-07-28T03:25:54.459Z,23.07
2022-07-28T03:27:06.451Z,23.06
2022-07-28T03:28:08.990Z,23.08
2022-07-28T03:29:11.280Z,23.11
2022-07-28T03:30:16.613Z,23.13
2022-07-28T03:31:18.929Z,23.12
2022-07-28T03:32:22.673Z,23.11
2022-07-28T03:33:25.335Z,23.10
2022-07-28T03:34:29.287Z,23.08
2022-07-28T03:35:32.104Z,23.05
2022-07-28T03:36:38.297Z,23.04
2022-07-28T03:38:08.549Z,23.06
2022-07-28T03:39:11.137Z,23.05
2022-07-28T03:40:14.117Z,23.00
2022-07-28T03:41:16.361Z,22.99
2022-07-28T03:42:19.045Z,22.96
2022-07-28T03:43:23.968Z,22.94
2022-07-28T03:44:27.688Z,22.92
2022-07-28T03:45:30.944Z,22.91
2022-07-28T03:46:34.025Z,22.93
2022-07-28T03:47:37.089Z,22.95
2022-07-28T03:48:39.482Z,22.98
2022-07-28T03:49:45.205Z,23.01
2022-07-28T03:50:47.770Z,23.03
2022-07-28T03:51:50.543Z,23.06
2022-07-28T03:52:53.324Z,23.07
2022-07-28T03:53:56.374Z,23.05
2022-07-28T03:54:59.749Z,23.04
2022-07-28T03:56:03.057Z,23.07
2022-07-28T03:57:06.447Z,23.08
2022-07-28T03:58:08.960Z,23.04
2022-07-28T03:59:11.371Z,23.03
2022-07-28T04:00:16.294Z,23.01
2022-07-28T04:01:20.506Z,23.01
2022-07-28T04:02:24.186Z,23.05
2022-07-28T04:03:43.374Z,23.05
2022-07-28T04:04:31.694Z,23.06
2022-07-28T04:05:34.996Z,23.05
2022-07-28T04:06:37.768Z,23.04
2022-07-28T04:07:41.476Z,23.03
2022-07-28T04:08:43.904Z,23.01
2022-07-28T04:09:46.138Z,23.01
2022-07-28T04:10:48.647Z,23.05
2022-07-28T04:11:51.188Z,23.07
2022-07-28T04:12:54.881Z,23.11
2022-07-28T04:13:58.505Z,23.10
2022-07-28T04:15:01.143Z,23.09
2022-07-28T04:16:04.580Z,23.13
2022-07-28T04:17:07.291Z,23.14
2022-07-28T04:18:10.927Z,23.18
2022-07-28T04:19:13.359Z,23.22
2022-07-28T04:20:18.079Z,23.22
2022-07-28T04:21:20.533Z,23.23
2022-07-28T04:22:23.254Z,23.24
2022-07-28T04:23:26.390Z,23.22
2022-07-28T04:24:28.849Z,23.22
2022-07-28T04:25:31.940Z,23.18
2022-07-28T04:26:35.010Z,23.14
2022-07-28T04:27:37.375Z,23.09
2022-07-28T04:28:39.770Z,23.06
2022-07-28T04:29:43.222Z,23.01
2022-07-28T04:30:46.360Z,23.00
2022-07-28T04:31:51.228Z,22.96
2022-07-28T04:33:56.452Z,22.89
2022-07-28T04:34:59.771Z,22.87
2022-07-28T04:36:02.517Z,22.86
2022-07-28T04:37:05.667Z,22.84
2022-07-28T04:38:07.933Z,22.76
2022-07-28T04:39:10.317Z,22.82
2022-07-28T04:40:13.185Z,22.80
2022-07-28T04:41:15.757Z,22.80
2022-07-28T04:42:18.122Z,22.79
2022-07-28T04:43:23.105Z,22.76
2022-07-28T04:44:25.097Z,22.75
2022-07-28T04:45:27.576Z,22.79
2022-07-28T04:46:30.720Z,22.83
2022-07-28T04:47:33.294Z,22.84
2022-07-28T04:48:36.499Z,22.83
2022-07-28T04:49:39.765Z,22.85
2022-07-28T04:50:42.083Z,22.88
2022-07-28T04:51:44.435Z,22.92
2022-07-28T04:52:46.855Z,22.95
2022-07-28T04:53:49.111Z,22.98
2022-07-28T04:54:51.371Z,23.02
2022-07-28T04:55:54.859Z,23.03
2022-07-28T04:56:57.580Z,23.08
2022-07-28T04:57:59.959Z,23.13
2022-07-28T04:59:02.659Z,23.14
2022-07-28T05:00:07.837Z,23.12
2022-07-28T05:01:12.235Z,23.09
2022-07-28T05:02:14.878Z,23.07
2022-07-28T05:03:18.771Z,23.09
2022-07-28T05:04:21.622Z,23.11
2022-07-28T05:05:25.151Z,23.14
2022-07-28T05:06:29.233Z,23.16
2022-07-28T05:07:31.883Z,23.17
2022-07-28T05:08:34.272Z,23.15
2022-07-28T05:09:36.731Z,23.17
2022-07-28T05:11:53.795Z,23.25
2022-07-28T05:12:56.203Z,23.18
2022-07-28T05:13:59.289Z,23.19
2022-07-28T05:15:03.192Z,23.22
2022-07-28T05:16:05.948Z,23.28
2022-07-28T05:17:08.406Z,23.28
2022-07-28T05:18:14.269Z,23.29
2022-07-28T05:19:16.730Z,23.28
2022-07-28T05:20:21.061Z,23.31
2022-07-28T05:21:23.299Z,23.35
2022-07-28T05:22:26.575Z,23.39
2022-07-28T05:23:30.491Z,23.41
2022-07-28T05:24:32.788Z,23.42
2022-07-28T05:25:35.408Z,23.46
2022-07-28T05:26:38.993Z,23.51
2022-07-28T05:27:41.464Z,23.54
2022-07-28T05:28:43.753Z,23.57
2022-07-28T05:29:47.004Z,23.62
2022-07-28T05:30:52.254Z,23.63
2022-07-28T05:31:55.340Z,23.63
2022-07-28T05:32:57.780Z,23.64
2022-07-28T05:34:01.269Z,23.66
2022-07-28T05:35:04.615Z,23.67
2022-07-28T05:36:08.040Z,23.68
2022-07-28T05:37:10.567Z,23.68
2022-07-28T05:38:12.949Z,23.70
2022-07-28T05:39:15.835Z,23.69
2022-07-28T05:40:19.844Z,23.71
2022-07-28T05:41:23.264Z,23.73
2022-07-28T05:42:25.575Z,23.73
2022-07-28T05:43:28.159Z,23.76
2022-07-28T05:44:35.804Z,23.81
2022-07-28T05:45:35.006Z,23.83
2022-07-28T05:46:37.882Z,23.85
2022-07-28T05:47:44.977Z,23.85
2022-07-28T05:48:47.425Z,23.83
2022-07-28T05:49:50.008Z,23.78
2022-07-28T05:50:53.000Z,23.73
2022-07-28T05:51:56.067Z,23.73
2022-07-28T05:52:59.153Z,23.76
2022-07-28T05:54:01.546Z,23.79
2022-07-28T05:55:06.022Z,23.82
2022-07-28T05:56:08.586Z,23.82
2022-07-28T05:57:11.050Z,23.82
2022-07-28T05:58:15.333Z,23.81
2022-07-28T05:59:17.820Z,23.83
2022-07-28T06:00:22.068Z,23.85
2022-07-28T06:01:24.521Z,23.86
2022-07-28T06:02:27.127Z,23.90
2022-07-28T06:03:31.574Z,23.94
2022-07-28T06:04:34.754Z,23.99
2022-07-28T06:06:00.778Z,24.01
2022-07-28T06:06:42.755Z,24.03
2022-07-28T06:07:46.345Z,24.07
2022-07-28T06:08:48.807Z,24.10
2022-07-28T06:09:51.574Z,24.13
2022-07-28T06:10:53.987Z,24.16
2022-07-28T06:11:56.404Z,24.16
2022-07-28T06:13:01.387Z,24.18
2022-07-28T06:14:03.992Z,24.20
2022-07-28T06:15:07.683Z,24.19
2022-07-28T06:16:13.483Z,24.17
2022-07-28T06:17:16.798Z,24.13
2022-07-28T06:18:20.610Z,24.13
2022-07-28T06:19:23.805Z,24.14
2022-07-28T06:20:27.414Z,24.14
2022-07-28T06:21:30.756Z,24.16
2022-07-28T06:22:47.584Z,24.19
2022-07-28T06:23:50.091Z,24.23
2022-07-28T06:24:53.984Z,24.23
2022-07-28T06:25:57.765Z,24.17
2022-07-28T06:27:00.387Z,24.12
2022-07-28T06:28:02.869Z,24.10
2022-07-28T06:29:05.521Z,24.11
2022-07-28T06:30:09.326Z,24.09
2022-07-28T06:31:11.576Z,24.09
2022-07-28T06:32:13.796Z,24.06
2022-07-28T06:33:17.344Z,24.05
2022-07-28T06:34:20.211Z,24.07
2022-07-28T06:35:25.077Z,24.12
2022-07-28T06:36:28.208Z,24.13
2022-07-28T06:37:31.703Z,24.15
2022-07-28T06:38:35.626Z,24.12
2022-07-28T06:39:37.967Z,24.10
2022-07-28T06:40:43.189Z,24.11
2022-07-28T06:41:45.605Z,24.08
2022-07-28T06:42:48.421Z,24.03
2022-07-28T06:43:52.633Z,24.00
2022-07-28T06:44:59.295Z,23.98
2022-07-28T06:45:59.191Z,23.98
2022-07-28T06:47:01.610Z,23.99
2022-07-28T06:48:04.728Z,24.02
2022-07-28T06:49:08.398Z,24.01
2022-07-28T06:50:24.436Z,24.01
2022-07-28T06:51:16.470Z,24.00
2022-07-28T06:52:18.998Z,23.99
2022-07-28T06:53:21.467Z,23.97
2022-07-28T06:54:25.210Z,23.98
2022-07-28T06:55:34.528Z,24.03
2022-07-28T06:56:34.683Z,24.07
2022-07-28T06:57:37.057Z,24.15
2022-07-28T06:58:39.373Z,24.15
2022-07-28T06:59:42.662Z,24.17
2022-07-28T07:00:45.590Z,24.17
2022-07-28T07:01:48.253Z,24.18
2022-07-28T07:02:51.319Z,24.15
2022-07-28T07:03:54.143Z,24.11
2022-07-28T07:04:56.700Z,24.12
2022-07-28T07:05:59.013Z,24.10
2022-07-28T07:07:02.109Z,24.06
2022-07-28T07:08:06.183Z,24.06
2022-07-28T07:09:08.723Z,24.09
2022-07-28T07:10:13.209Z,24.10
2022-07-28T07:11:15.543Z,24.11
2022-07-28T07:12:18.208Z,24.14
2022-07-28T07:13:21.398Z,24.18
2022-07-28T07:14:24.175Z,24.20
2022-07-28T07:15:26.917Z,24.20
2022-07-28T07:16:31.491Z,24.22
2022-07-28T07:17:35.244Z,24.23
2022-07-28T07:18:38.161Z,24.25
2022-07-28T07:19:40.562Z,24.28
2022-07-28T07:20:43.911Z,24.34
2022-07-28T07:21:48.202Z,24.41
2022-07-28T07:22:52.418Z,24.45
2022-07-28T07:23:55.042Z,24.46
2022-07-28T07:24:58.331Z,24.45
2022-07-28T07:26:01.303Z,24.46
2022-07-28T07:27:03.671Z,24.45
2022-07-28T07:28:06.133Z,24.45
2022-07-28T07:29:08.598Z,24.45
2022-07-28T07:30:13.111Z,24.44
2022-07-28T07:31:15.764Z,24.43
2022-07-28T07:32:18.452Z,24.43
2022-07-28T07:33:20.923Z,24.42
2022-07-28T07:34:23.386Z,24.42
2022-07-28T07:35:26.149Z,24.42
2022-07-28T07:36:29.942Z,24.43
2022-07-28T07:37:33.527Z,24.46
2022-07-28T07:38:36.485Z,24.50
2022-07-28T07:39:39.255Z,24.52
2022-07-28T07:40:42.156Z,24.50
2022-07-28T07:41:45.637Z,24.49
2022-07-28T07:42:49.340Z,24.47
2022-07-28T07:43:51.875Z,24.56
2022-07-28T07:44:58.609Z,24.63
2022-07-28T07:46:01.146Z,24.67
2022-07-28T07:47:21.831Z,24.74
2022-07-28T07:48:24.067Z,24.81
2022-07-28T07:49:26.749Z,24.85
2022-07-28T07:50:32.262Z,24.90
2022-07-28T07:51:36.629Z,24.92
2022-07-28T07:52:38.914Z,24.94
2022-07-28T07:53:42.265Z,24.99
2022-07-28T07:54:45.834Z,25.02
2022-07-28T07:55:48.077Z,25.05
2022-07-28T07:56:50.760Z,25.08
2022-07-28T07:57:53.041Z,25.11
2022-07-28T07:58:57.215Z,25.12
2022-07-28T07:59:59.851Z,25.15
2022-07-28T08:01:02.367Z,25.18
2022-07-28T08:02:08.100Z,25.22
2022-07-28T08:03:16.152Z,25.27
2022-07-28T08:04:25.322Z,25.31
2022-07-28T08:05:34.976Z,25.32
2022-07-28T08:06:34.451Z,25.33
2022-07-28T08:07:38.450Z,25.34
2022-07-28T08:08:45.055Z,25.35
2022-07-28T08:09:46.739Z,25.37
2022-07-28T08:10:49.829Z,25.39
2022-07-28T08:11:54.858Z,25.42
2022-07-28T08:12:57.090Z,25.43
2022-07-28T08:13:59.672Z,25.41
2022-07-28T08:15:03.539Z,25.39
2022-07-28T08:16:06.804Z,25.37
2022-07-28T08:17:10.250Z,25.35
2022-07-28T08:18:13.229Z,25.34
2022-07-28T08:19:15.539Z,25.35
2022-07-28T08:20:21.158Z,25.33
2022-07-28T08:21:26.782Z,25.30
2022-07-28T08:22:29.008Z,25.29
2022-07-28T08:23:31.386Z,25.32
2022-07-28T08:24:37.029Z,25.34
2022-07-28T08:25:40.231Z,25.35
2022-07-28T08:26:43.493Z,25.35
2022-07-28T08:27:46.059Z,25.35
2022-07-28T08:28:48.525Z,25.34
2022-07-28T08:29:52.214Z,25.37
2022-07-28T08:30:55.185Z,25.41
2022-07-28T08:31:57.743Z,25.44
2022-07-28T08:33:00.739Z,25.47
2022-07-28T08:34:04.252Z,25.49
2022-07-28T08:35:31.832Z,25.51
2022-07-28T08:36:13.340Z,25.50
2022-07-28T08:37:15.616Z,25.50
2022-07-28T08:38:17.976Z,25.50
2022-07-28T08:39:21.049Z,25.49
2022-07-28T08:40:27.597Z,25.51
2022-07-28T08:41:39.094Z,25.53
2022-07-28T08:42:58.536Z,25.58
2022-07-28T08:44:02.693Z,25.61
2022-07-28T08:45:06.390Z,25.64
2022-07-28T08:46:09.560Z,25.63
2022-07-28T08:47:13.727Z,25.62
2022-07-28T08:48:15.991Z,25.60
2022-07-28T08:49:18.401Z,25.58
2022-07-28T08:50:22.390Z,25.56
2022-07-28T08:51:26.082Z,25.56
2022-07-28T08:52:28.945Z,25.55
2022-07-28T08:53:31.506Z,25.55
2022-07-28T08:54:33.857Z,25.55
2022-07-28T08:55:37.282Z,25.56
2022-07-28T08:56:41.234Z,25.56
2022-07-28T08:57:45.414Z,25.56
2022-07-28T08:58:47.799Z,25.59
2022-07-28T08:59:52.278Z,25.61
2022-07-28T09:00:56.870Z,25.65
2022-07-28T09:01:59.319Z,25.68
2022-07-28T09:03:01.994Z,25.72
2022-07-28T09:04:06.274Z,25.74
2022-07-28T09:05:10.231Z,25.73
2022-07-28T09:06:15.201Z,25.73
2022-07-28T09:07:17.622Z,25.78
2022-07-28T09:08:19.782Z,25.81
2022-07-28T09:09:22.162Z,25.82
2022-07-28T09:10:26.394Z,25.80
2022-07-28T09:11:29.606Z,25.80
2022-07-28T09:12:36.475Z,25.80
2022-07-28T09:13:38.997Z,25.80
2022-07-28T09:14:41.464Z,25.77
2022-07-28T09:15:45.183Z,25.78
2022-07-28T09:16:47.928Z,25.82
2022-07-28T09:17:50.699Z,25.82
2022-07-28T09:18:53.442Z,25.80
2022-07-28T09:19:55.915Z,25.77
2022-07-28T09:20:58.703Z,25.76
2022-07-28T09:22:01.544Z,25.76
2022-07-28T09:23:42.791Z,25.76
2022-07-28T09:24:10.227Z,25.78
2022-07-28T09:26:28.634Z,25.89
2022-07-28T09:28:57.251Z,25.89
2022-07-28T09:29:59.889Z,25.80
2022-07-28T09:31:05.504Z,25.81
2022-07-28T09:32:08.468Z,25.82
2022-07-28T09:33:42.645Z,25.83
2022-07-28T09:34:21.203Z,25.86
2022-07-28T09:35:23.478Z,25.87
2022-07-28T09:36:28.301Z,25.86
2022-07-28T09:37:31.273Z,25.84
2022-07-28T09:38:37.328Z,25.83
2022-07-28T09:39:40.329Z,25.84
2022-07-28T09:40:42.866Z,25.82
2022-07-28T09:41:48.448Z,25.81
2022-07-28T09:42:51.172Z,25.81
2022-07-28T09:43:55.400Z,25.80
2022-07-28T09:45:22.371Z,25.78
2022-07-28T09:47:26.045Z,25.87
2022-07-28T09:48:29.201Z,25.77
2022-07-28T09:49:42.968Z,25.77
2022-07-28T09:50:46.520Z,25.78
2022-07-28T09:52:00.390Z,25.82
2022-07-28T09:53:06.340Z,25.84
2022-07-28T09:55:25.343Z,26.02
2022-07-28T09:56:30.591Z,25.91
2022-07-28T09:57:36.257Z,25.91
2022-07-28T09:58:39.717Z,25.92
2022-07-28T09:59:43.339Z,25.94
2022-07-28T10:00:48.413Z,25.96
2022-07-28T10:01:55.373Z,25.95
2022-07-28T10:02:59.223Z,25.93
2022-07-28T10:04:02.775Z,25.96
2022-07-28T10:05:07.025Z,26.00
2022-07-28T10:06:14.552Z,26.03
2022-07-28T10:07:17.866Z,26.08
2022-07-28T10:08:42.228Z,26.12
2022-07-28T10:10:00.061Z,26.13
2022-07-28T10:11:02.830Z,26.16
2022-07-28T10:12:19.804Z,26.17
2022-07-28T10:13:22.081Z,26.19
2022-07-28T10:14:33.678Z,26.17
2022-07-28T10:15:36.123Z,26.17
2022-07-28T10:16:45.054Z,26.14
2022-07-28T10:17:47.364Z,26.13
2022-07-28T10:18:49.772Z,26.11
2022-07-28T10:19:52.248Z,26.10
2022-07-28T10:20:56.657Z,26.10
2022-07-28T10:21:58.892Z,26.10
2022-07-28T10:23:03.214Z,26.11
2022-07-28T10:24:06.389Z,26.13
2022-07-28T10:25:09.378Z,26.13
2022-07-28T10:26:13.057Z,26.12
2022-07-28T10:27:16.455Z,26.11
2022-07-28T10:28:19.440Z,26.10
2022-07-28T10:29:21.932Z,26.12
2022-07-28T10:30:25.071Z,26.15
2022-07-28T10:31:43.034Z,26.15
2022-07-28T10:32:46.189Z,26.14
2022-07-28T10:33:50.445Z,26.13
2022-07-28T10:35:04.840Z,26.13
2022-07-28T10:36:07.613Z,26.13
2022-07-28T10:37:12.227Z,26.13
2022-07-28T10:38:16.022Z,26.13
2022-07-28T10:39:20.417Z,26.13
2022-07-28T10:40:29.044Z,26.15
2022-07-28T10:41:37.936Z,26.18
2022-07-28T10:42:40.997Z,26.22
2022-07-28T10:43:45.483Z,26.27
2022-07-28T10:44:48.237Z,26.30
2022-07-28T10:46:08.176Z,26.33
2022-07-28T10:46:55.551Z,26.34
2022-07-28T10:47:58.040Z,26.35
2022-07-28T10:49:03.587Z,26.33
2022-07-28T10:50:06.203Z,26.33
2022-07-28T10:51:08.526Z,26.33
2022-07-28T10:52:30.484Z,26.35
2022-07-28T10:54:41.010Z,26.50
2022-07-28T10:55:50.132Z,26.41
2022-07-28T10:56:57.186Z,26.44
2022-07-28T10:58:24.972Z,26.46
2022-07-28T10:59:58.331Z,26.48
2022-07-28T11:01:05.031Z,26.50
2022-07-28T11:02:02.519Z,26.50
2022-07-28T11:03:11.798Z,26.50
2022-07-28T11:04:13.380Z,26.50
2022-07-28T11:05:34.849Z,26.52
2022-07-28T11:06:37.877Z,26.53
2022-07-28T11:07:40.213Z,26.52
2022-07-28T11:08:42.561Z,26.53
2022-07-28T11:11:08.756Z,26.66
2022-07-28T11:12:12.770Z,26.57
2022-07-28T11:13:32.976Z,26.54
2022-07-28T11:14:39.351Z,26.53
2022-07-28T11:15:47.156Z,26.53
2022-07-28T11:18:12.794Z,26.64
2022-07-28T11:19:40.160Z,26.52
2022-07-28T11:20:45.077Z,26.51
2022-07-28T11:22:16.577Z,26.52
2022-07-28T11:23:46.640Z,26.54
2022-07-28T11:25:18.994Z,26.58
2022-07-28T11:26:24.012Z,26.60
2022-07-28T11:27:45.499Z,26.59
2022-07-28T11:30:31.482Z,26.68
2022-07-28T11:33:03.562Z,26.64
2022-07-28T11:37:06.465Z,26.63
2022-07-28T11:38:10.269Z,26.53
2022-07-28T11:39:26.068Z,26.56
2022-07-28T11:40:34.423Z,26.57
2022-07-28T11:41:37.024Z,26.58
2022-07-28T11:42:41.113Z,26.58
2022-07-28T11:43:44.243Z,26.58
2022-07-28T11:44:48.627Z,26.60
2022-07-28T11:46:10.222Z,26.59
2022-07-28T11:47:16.185Z,26.58
2022-07-28T11:48:19.882Z,26.59
2022-07-28T11:49:25.334Z,26.61
2022-07-28T11:50:30.894Z,26.62
2022-07-28T11:51:51.126Z,26.64
2022-07-28T11:52:39.988Z,26.67
2022-07-28T11:53:52.165Z,26.69
2022-07-28T11:54:56.520Z,26.69
2022-07-28T11:56:02.567Z,26.70
2022-07-28T11:57:05.287Z,26.71
2022-07-28T11:58:07.591Z,26.72
2022-07-28T11:59:10.830Z,26.76
2022-07-28T12:00:22.116Z,26.76
2022-07-28T12:01:25.726Z,26.78
2022-07-28T12:02:30.062Z,26.79
2022-07-28T12:03:50.201Z,26.80
2022-07-28T12:04:56.272Z,26.82
2022-07-28T12:06:05.382Z,26.83
2022-07-28T12:07:09.380Z,26.84
2022-07-28T12:08:12.243Z,26.85
2022-07-28T12:09:15.515Z,26.85
2022-07-28T12:11:33.944Z,26.87
2022-07-28T12:12:37.646Z,26.83
2022-07-28T12:13:40.291Z,26.83
2022-07-28T12:14:43.704Z,26.82
2022-07-28T12:15:51.582Z,26.82
2022-07-28T12:16:54.410Z,26.82
2022-07-28T12:17:57.247Z,26.83
2022-07-28T12:19:00.474Z,26.84
2022-07-28T12:20:05.485Z,26.84
2022-07-28T12:21:09.666Z,26.86
2022-07-28T12:22:15.654Z,26.87
2022-07-28T12:23:23.228Z,26.89
2022-07-28T12:24:29.978Z,26.88
2022-07-28T12:26:55.178Z,27.01
2022-07-28T12:28:02.212Z,26.93
2022-07-28T12:29:08.464Z,26.93
2022-07-28T12:30:12.597Z,26.94
2022-07-28T12:31:15.258Z,26.94
2022-07-28T12:32:17.854Z,26.95
2022-07-28T12:33:29.332Z,26.96
2022-07-28T12:34:30.534Z,26.97
2022-07-28T12:35:32.884Z,26.98
2022-07-28T12:36:38.947Z,26.99
2022-07-28T12:37:42.502Z,26.99
2022-07-28T12:38:45.302Z,26.99
2022-07-28T12:39:51.500Z,27.00
2022-07-28T12:40:54.332Z,27.00
2022-07-28T12:42:04.977Z,27.01
2022-07-28T12:43:07.906Z,27.02
2022-07-28T12:44:10.984Z,27.02
2022-07-28T12:45:14.837Z,27.03
2022-07-28T12:47:34.113Z,27.17
2022-07-28T12:48:39.973Z,27.08
2022-07-28T12:49:44.043Z,27.09
2022-07-28T12:50:47.332Z,27.09
2022-07-28T12:51:49.889Z,27.11
2022-07-28T12:53:09.887Z,27.12
2022-07-28T12:54:12.944Z,27.09
2022-07-28T12:55:26.272Z,27.08
2022-07-28T12:56:29.081Z,27.10
2022-07-28T12:57:49.824Z,27.10
2022-07-28T12:58:49.775Z,27.12
2022-07-28T12:59:52.098Z,27.13
2022-07-28T13:00:55.132Z,27.14
2022-07-28T13:01:57.986Z,27.15
2022-07-28T13:03:02.857Z,27.17
2022-07-28T13:04:05.851Z,27.16
2022-07-28T13:05:08.501Z,27.17
2022-07-28T13:06:13.149Z,27.19
2022-07-28T13:07:24.810Z,27.19
2022-07-28T13:08:29.511Z,27.20
2022-07-28T13:09:32.812Z,27.20
2022-07-28T13:10:46.203Z,27.21
2022-07-28T13:11:51.074Z,27.23
2022-07-28T13:13:07.069Z,27.23
2022-07-28T13:14:10.391Z,27.23
2022-07-28T13:15:16.666Z,27.24
2022-07-28T13:16:20.750Z,27.25
2022-07-28T13:17:25.914Z,27.25
2022-07-28T13:18:39.371Z,27.26
2022-07-28T13:19:42.057Z,27.25
2022-07-28T13:22:06.853Z,27.38
2022-07-28T13:23:07.356Z,27.29
2022-07-28T13:24:13.961Z,27.29
2022-07-28T13:25:18.215Z,27.29
2022-07-28T13:26:21.662Z,27.30
2022-07-28T13:27:24.392Z,27.32
2022-07-28T13:28:28.072Z,27.32
2022-07-28T13:29:34.695Z,27.34
2022-07-28T13:30:39.101Z,27.36
2022-07-28T13:31:41.540Z,27.37
2022-07-28T13:32:45.115Z,27.39
2022-07-28T13:33:47.518Z,27.40
2022-07-28T13:34:49.829Z,27.42
2022-07-28T13:35:52.374Z,27.42
2022-07-28T13:36:56.031Z,27.44
2022-07-28T13:37:58.403Z,27.45
2022-07-28T13:39:03.020Z,27.47
2022-07-28T13:40:06.602Z,27.49
2022-07-28T13:41:09.176Z,27.49
2022-07-28T13:42:11.523Z,27.51
2022-07-28T13:43:15.737Z,27.53
2022-07-28T13:44:18.616Z,27.53
2022-07-28T13:45:23.590Z,27.54
2022-07-28T13:46:28.766Z,27.56
2022-07-28T13:47:35.335Z,27.57
2022-07-28T13:48:37.292Z,27.57
2022-07-28T13:49:41.110Z,27.57
2022-07-28T13:50:46.347Z,27.59
2022-07-28T13:51:51.269Z,27.59
2022-07-28T13:52:54.629Z,27.59
2022-07-28T13:53:57.095Z,27.61
2022-07-28T13:54:59.473Z,27.62
2022-07-28T13:56:04.920Z,27.64
2022-07-28T13:57:07.551Z,27.65
2022-07-28T13:58:10.623Z,27.65
2022-07-28T13:59:13.443Z,27.65
2022-07-28T14:00:17.715Z,27.66
2022-07-28T14:01:21.884Z,27.66
2022-07-28T14:02:25.984Z,27.67
2022-07-28T14:03:55.682Z,27.67
2022-07-28T14:04:37.504Z,27.67
2022-07-28T14:05:42.107Z,27.69
2022-07-28T14:06:45.594Z,27.69
2022-07-28T14:07:49.327Z,27.70
2022-07-28T14:08:52.724Z,27.70
2022-07-28T14:09:56.676Z,27.71
2022-07-28T14:10:59.298Z,27.73
2022-07-28T14:12:01.910Z,27.72
2022-07-28T14:13:05.869Z,27.73
2022-07-28T14:14:12.416Z,27.74
2022-07-28T14:15:14.714Z,27.75
2022-07-28T14:16:19.508Z,27.77
2022-07-28T14:17:44.266Z,27.78
2022-07-28T14:18:27.143Z,27.80
2022-07-28T14:19:38.589Z,27.77
2022-07-28T14:20:35.242Z,27.77
2022-07-28T14:21:39.063Z,27.83
2022-07-28T14:22:42.939Z,27.84
2022-07-28T14:23:45.477Z,27.85
2022-07-28T14:24:49.197Z,27.87
2022-07-28T14:25:52.259Z,27.89
2022-07-28T14:26:55.174Z,27.90
2022-07-28T14:27:57.679Z,27.90
2022-07-28T14:29:00.082Z,27.93
2022-07-28T14:30:04.636Z,27.92